createdAt,value
2022-08-26T00:00:55.283Z,82.71
2022-08-26T00:03:59.095Z,83.04
2022-08-26T00:07:01.858Z,83.87
2022-08-26T00:10:06.340Z,84.20
2022-08-26T00:13:10.731Z,82.84
2022-08-26T00:16:14.940Z,82.73
2022-08-26T00:19:21.021Z,83.16
2022-08-26T00:22:24.442Z,83.33
2022-08-26T00:25:27.669Z,83.88
2022-08-26T00:28:30.791Z,83.75
2022-08-26T00:31:33.565Z,83.31
2022-08-26T00:34:36.584Z,83.55
2022-08-26T00:37:40.750Z,83.46
2022-08-26T00:40:48.085Z,84.40
2022-08-26T00:43:51.471Z,84.17
2022-08-26T00:47:01.282Z,84.37
2022-08-26T00:50:11.201Z,84.29
2022-08-26T00:53:25.897Z,84.08
2022-08-26T00:56:56.202Z,84.43
2022-08-26T01:00:01.749Z,84.27
2022-08-26T01:03:05.219Z,84.60
2022-08-26T01:06:09.917Z,85.38
2022-08-26T01:09:16.422Z,85.76
2022-08-26T01:12:22.261Z,85.63
2022-08-26T01:15:38.047Z,84.90
2022-08-26T01:18:43.531Z,84.71
2022-08-26T01:21:57.339Z,84.45
2022-08-26T01:25:03.554Z,84.38
2022-08-26T01:28:10.283Z,84.51
2022-08-26T01:31:15.541Z,83.96
2022-08-26T01:34:23.808Z,83.85
2022-08-26T01:37:33.519Z,83.39
2022-08-26T01:40:39.247Z,83.32
2022-08-26T01:43:51.014Z,83.48
2022-08-26T01:46:55.548Z,83.79
2022-08-26T01:50:01.434Z,83.44
2022-08-26T01:53:15.031Z,83.40
2022-08-26T01:56:18.702Z,84.03
2022-08-26T01:59:24.753Z,84.03
2022-08-26T02:02:29.280Z,83.45
2022-08-26T02:05:32.624Z,83.61
2022-08-26T02:08:44.796Z,83.68
2022-08-26T02:11:48.008Z,84.49
2022-08-26T02:14:56.591Z,86.04
2022-08-26T02:17:59.683Z,85.96
2022-08-26T02:21:02.499Z,85.87
2022-08-26T02:24:19.722Z,85.07
2022-08-26T02:27:25.983Z,84.61
2022-08-26T02:30:32.991Z,84.96
2022-08-26T02:33:35.748Z,84.60
2022-08-26T02:36:39.055Z,84.83
2022-08-26T02:39:43.890Z,85.09
2022-08-26T02:42:46.795Z,84.98
2022-08-26T02:45:49.559Z,85.17
2022-08-26T02:48:53.087Z,84.41
2022-08-26T02:51:56.470Z,84.24
2022-08-26T02:55:00.015Z,84.00
2022-08-26T02:58:03.325Z,83.96
2022-08-26T03:01:06.547Z,83.46
2022-08-26T03:04:11.691Z,84.08
2022-08-26T03:07:16.656Z,84.40
2022-08-26T03:10:20.181Z,84.91
2022-08-26T03:13:23.180Z,85.65
2022-08-26T03:16:26.000Z,86.20
2022-08-26T03:19:35.584Z,85.95
2022-08-26T03:22:39.826Z,86.50
2022-08-26T03:25:42.830Z,86.28
2022-08-26T03:29:04.292Z,85.40
2022-08-26T03:32:07.880Z,85.13
2022-08-26T03:35:11.323Z,85.26
2022-08-26T03:38:14.829Z,84.87
2022-08-26T03:41:18.190Z,84.71
2022-08-26T03:44:21.239Z,85.22
2022-08-26T03:47:23.972Z,85.72
2022-08-26T03:50:27.116Z,85.87
2022-08-26T03:53:29.951Z,85.47
2022-08-26T03:56:34.053Z,84.97
2022-08-26T03:59:37.798Z,85.49
2022-08-26T04:02:46.349Z,86.13
2022-08-26T04:05:52.383Z,87.33
2022-08-26T04:08:56.738Z,87.47
2022-08-26T04:11:59.801Z,86.68
2022-08-26T04:15:02.869Z,87.10
2022-08-26T04:18:05.987Z,87.29
2022-08-26T04:21:09.210Z,87.33
2022-08-26T04:24:16.449Z,87.69
2022-08-26T04:27:20.366Z,87.63
2022-08-26T04:30:23.414Z,88.40
2022-08-26T04:33:33.072Z,88.41
2022-08-26T04:36:37.530Z,88.47
2022-08-26T04:39:41.364Z,88.13
2022-08-26T04:42:44.621Z,88.37
2022-08-26T04:45:47.819Z,88.70
2022-08-26T04:48:52.514Z,88.84
2022-08-26T04:51:55.345Z,89.20
2022-08-26T04:54:58.982Z,88.89
2022-08-26T04:58:01.765Z,88.58
2022-08-26T05:01:05.828Z,88.26
2022-08-26T05:04:08.681Z,87.75
2022-08-26T05:07:11.894Z,87.53
2022-08-26T05:10:14.873Z,86.49
2022-08-26T05:13:21.068Z,85.16
2022-08-26T05:16:23.782Z,85.17
2022-08-26T05:19:27.820Z,84.02
2022-08-26T05:22:30.796Z,83.05
2022-08-26T05:25:42.033Z,82.92
2022-08-26T05:28:45.394Z,81.55
2022-08-26T05:31:53.260Z,81.08
2022-08-26T05:34:58.642Z,80.87
2022-08-26T05:38:02.691Z,79.59
2022-08-26T05:41:15.591Z,79.82
2022-08-26T05:44:21.240Z,80.19
2022-08-26T05:47:26.445Z,80.91
2022-08-26T05:50:30.323Z,81.26
2022-08-26T05:53:33.650Z,81.80
2022-08-26T05:56:38.125Z,81.79
2022-08-26T05:59:40.853Z,82.50
2022-08-26T06:02:48.411Z,82.97
2022-08-26T06:05:51.702Z,82.82
2022-08-26T06:08:55.376Z,83.01
2022-08-26T06:12:01.971Z,82.13
2022-08-26T06:15:05.264Z,82.93
2022-08-26T06:18:08.629Z,82.01
2022-08-26T06:21:30.607Z,81.66
2022-08-26T06:24:52.687Z,81.95
2022-08-26T06:27:55.758Z,81.18
2022-08-26T06:30:59.307Z,80.96
2022-08-26T06:34:10.605Z,80.69
2022-08-26T06:37:14.399Z,79.44
2022-08-26T06:40:17.140Z,79.55
2022-08-26T06:43:25.406Z,79.27
2022-08-26T06:46:29.816Z,78.54
2022-08-26T06:49:32.957Z,78.20
2022-08-26T06:52:35.746Z,77.09
2022-08-26T06:55:46.522Z,77.38
2022-08-26T06:58:52.114Z,78.16
2022-08-26T07:01:55.440Z,75.65
2022-08-26T07:04:58.237Z,74.23
2022-08-26T07:08:01.429Z,72.11
2022-08-26T07:11:08.923Z,70.41
2022-08-26T07:14:12.797Z,68.90
2022-08-26T07:17:16.346Z,67.25
2022-08-26T07:20:20.030Z,66.27
2022-08-26T07:23:22.788Z,65.04
2022-08-26T07:26:28.652Z,63.57
2022-08-26T07:29:34.106Z,62.05
2022-08-26T07:32:38.003Z,60.47
2022-08-26T07:35:41.164Z,58.32
2022-08-26T07:38:45.673Z,56.78
2022-08-26T07:41:48.382Z,57.49
2022-08-26T07:44:52.148Z,56.65
2022-08-26T07:47:55.399Z,56.42
2022-08-26T07:50:59.623Z,54.57
2022-08-26T07:54:02.217Z,54.28
2022-08-26T07:57:05.267Z,53.58
2022-08-26T08:00:16.231Z,53.49
2022-08-26T08:03:20.752Z,52.01
2022-08-26T08:06:27.127Z,51.82
2022-08-26T08:09:31.217Z,50.33
2022-08-26T08:12:34.118Z,49.55
2022-08-26T08:15:37.889Z,48.49
2022-08-26T08:18:41.584Z,50.16
2022-08-26T08:21:45.274Z,47.23
2022-08-26T08:24:49.679Z,48.25
2022-08-26T08:27:55.209Z,48.38
2022-08-26T08:31:00.012Z,47.48
2022-08-26T08:34:03.143Z,46.75
2022-08-26T08:37:08.773Z,46.59
2022-08-26T08:40:18.604Z,46.40
2022-08-26T08:43:24.265Z,45.39
2022-08-26T08:46:30.320Z,42.30
2022-08-26T08:49:35.054Z,43.21
2022-08-26T08:52:41.577Z,42.65
2022-08-26T08:55:57.436Z,42.57
2022-08-26T08:59:18.524Z,41.22
2022-08-26T09:02:51.147Z,41.66
2022-08-26T09:05:55.643Z,41.09
2022-08-26T09:09:00.749Z,40.63
2022-08-26T09:12:11.104Z,40.05
2022-08-26T09:15:26.397Z,39.78
2022-08-26T09:18:55.353Z,39.21
2022-08-26T09:22:02.276Z,40.67
2022-08-26T09:25:12.314Z,41.22
2022-08-26T09:28:24.091Z,40.99
2022-08-26T09:31:36.005Z,40.59
2022-08-26T09:34:54.470Z,41.07
2022-08-26T09:37:58.525Z,39.94
2022-08-26T09:41:19.152Z,38.97
2022-08-26T09:44:22.652Z,38.25
2022-08-26T09:47:31.977Z,38.75
2022-08-26T09:50:55.597Z,38.79
2022-08-26T09:54:01.561Z,39.28
2022-08-26T09:57:20.388Z,37.97
2022-08-26T10:00:29.827Z,39.01
2022-08-26T10:03:37.084Z,38.12
2022-08-26T10:07:03.333Z,36.72
2022-08-26T10:10:12.893Z,37.17
2022-08-26T10:13:43.936Z,35.12
2022-08-26T10:16:50.871Z,36.32
2022-08-26T10:19:59.827Z,35.78
2022-08-26T10:23:14.089Z,34.95
2022-08-26T10:26:22.896Z,33.75
2022-08-26T10:29:39.170Z,33.78
2022-08-26T10:33:03.936Z,33.23
2022-08-26T10:36:42.924Z,30.27
2022-08-26T10:40:11.561Z,32.30
2022-08-26T10:43:41.036Z,32.07
2022-08-26T10:46:58.124Z,31.22
2022-08-26T10:50:03.666Z,32.74
2022-08-26T10:53:25.155Z,32.31
2022-08-26T10:56:54.800Z,31.39
2022-08-26T11:00:27.740Z,30.28
2022-08-26T11:03:48.612Z,31.87
2022-08-26T11:07:31.765Z,29.54
2022-08-26T11:10:44.908Z,31.13
2022-08-26T11:13:56.620Z,30.53
2022-08-26T11:17:00.383Z,29.78
2022-08-26T11:20:09.161Z,31.38
2022-08-26T11:23:28.377Z,30.65
2022-08-26T11:26:56.025Z,29.76
2022-08-26T11:34:12.983Z,28.79
2022-08-26T11:40:30.501Z,29.48
2022-08-26T11:43:34.230Z,28.48
2022-08-26T11:46:37.938Z,28.67
2022-08-26T11:49:42.484Z,29.82
2022-08-26T11:53:02.433Z,29.32
2022-08-26T11:56:09.244Z,28.61
2022-08-26T11:59:15.801Z,28.43
2022-08-26T12:02:19.532Z,28.77
2022-08-26T12:05:30.959Z,29.41
2022-08-26T12:08:34.717Z,28.92
2022-08-26T12:11:42.605Z,30.07
2022-08-26T12:14:46.573Z,28.93
2022-08-26T12:18:03.560Z,29.03
2022-08-26T12:21:22.537Z,27.50
2022-08-26T12:24:28.036Z,27.69
2022-08-26T12:27:44.693Z,28.30
2022-08-26T12:31:06.132Z,28.51
2022-08-26T12:34:18.151Z,28.32
2022-08-26T12:37:22.100Z,28.81
2022-08-26T12:40:29.203Z,29.42
2022-08-26T12:43:42.920Z,28.95
2022-08-26T12:46:49.202Z,28.71
2022-08-26T12:50:38.725Z,29.01
2022-08-26T12:53:44.008Z,29.29
2022-08-26T12:56:47.230Z,28.73
2022-08-26T13:00:15.046Z,28.56
2022-08-26T13:03:35.499Z,28.86
2022-08-26T13:06:38.416Z,28.04
2022-08-26T13:09:41.897Z,27.83
2022-08-26T13:12:48.034Z,29.23
2022-08-26T13:15:51.299Z,28.21
2022-08-26T13:18:58.573Z,27.81
2022-08-26T13:22:01.843Z,28.14
2022-08-26T13:25:04.993Z,29.52
2022-08-26T13:28:08.201Z,27.98
2022-08-26T13:31:12.731Z,27.78
2022-08-26T13:34:19.715Z,27.99
2022-08-26T13:37:34.464Z,27.27
2022-08-26T13:40:37.903Z,27.64
2022-08-26T13:43:40.737Z,27.94
2022-08-26T13:49:49.140Z,27.51
2022-08-26T13:52:52.131Z,27.95
2022-08-26T13:55:54.875Z,27.74
2022-08-26T13:59:00.556Z,28.51
2022-08-26T14:02:04.216Z,28.63
2022-08-26T14:05:09.350Z,29.15
2022-08-26T14:08:12.034Z,29.16
2022-08-26T14:11:16.491Z,28.89
2022-08-26T14:14:19.210Z,28.93
2022-08-26T14:17:24.724Z,29.06
2022-08-26T14:20:29.953Z,29.97
2022-08-26T14:23:34.223Z,29.42
2022-08-26T14:26:37.506Z,29.42
2022-08-26T14:29:41.152Z,29.63
2022-08-26T14:32:48.626Z,29.78
2022-08-26T14:35:52.378Z,29.23
2022-08-26T14:38:57.033Z,30.12
2022-08-26T14:42:00.565Z,30.99
2022-08-26T14:45:07.753Z,32.69
2022-08-26T14:48:11.451Z,33.39
2022-08-26T14:51:14.113Z,33.30
2022-08-26T14:54:18.606Z,33.94
2022-08-26T14:57:21.585Z,33.27
2022-08-26T15:00:27.218Z,32.93
2022-08-26T15:03:29.908Z,33.29
2022-08-26T15:06:34.744Z,32.59
2022-08-26T15:09:38.333Z,32.89
2022-08-26T15:12:42.283Z,32.05
2022-08-26T15:15:47.370Z,32.90
2022-08-26T15:18:51.924Z,33.28
2022-08-26T15:21:54.814Z,33.68
2022-08-26T15:25:00.070Z,33.55
2022-08-26T15:28:03.163Z,33.77
2022-08-26T15:31:07.800Z,34.15
2022-08-26T15:34:16.374Z,34.33
2022-08-26T15:37:21.329Z,34.08
2022-08-26T15:40:26.796Z,33.23
2022-08-26T15:43:30.221Z,34.06
2022-08-26T15:46:33.733Z,34.26
2022-08-26T15:49:36.820Z,34.65
2022-08-26T15:52:41.169Z,34.47
2022-08-26T15:55:45.691Z,34.16
2022-08-26T15:58:49.231Z,35.00
2022-08-26T16:01:53.480Z,35.92
2022-08-26T16:04:56.613Z,36.11
2022-08-26T16:08:04.596Z,35.49
2022-08-26T16:11:08.085Z,36.28
2022-08-26T16:14:10.839Z,36.77
2022-08-26T16:17:14.401Z,35.95
2022-08-26T16:20:17.313Z,35.28
2022-08-26T16:23:21.968Z,35.50
2022-08-26T16:26:32.780Z,36.17
2022-08-26T16:29:38.390Z,36.64
2022-08-26T16:32:41.353Z,36.68
2022-08-26T16:35:45.812Z,36.75
2022-08-26T16:38:53.672Z,37.16
2022-08-26T16:41:57.922Z,37.34
2022-08-26T16:45:00.793Z,37.80
2022-08-26T16:48:05.437Z,38.29
2022-08-26T16:51:13.644Z,38.52
2022-08-26T16:54:16.705Z,40.00
2022-08-26T16:57:19.599Z,40.01
2022-08-26T17:00:33.293Z,40.71
2022-08-26T17:03:36.140Z,41.28
2022-08-26T17:06:39.251Z,41.81
2022-08-26T17:09:43.305Z,42.41
2022-08-26T17:12:46.485Z,42.90
2022-08-26T17:15:54.334Z,43.27
2022-08-26T17:19:02.120Z,44.20
2022-08-26T17:22:05.586Z,44.86
2022-08-26T17:25:15.180Z,45.46
2022-08-26T17:28:17.838Z,46.18
2022-08-26T17:31:21.553Z,46.64
2022-08-26T17:34:24.578Z,46.71
2022-08-26T17:37:28.457Z,47.54
2022-08-26T17:40:31.911Z,48.68
2022-08-26T17:43:35.119Z,48.86
2022-08-26T17:46:39.293Z,49.71
2022-08-26T17:49:42.301Z,50.43
2022-08-26T17:52:46.926Z,50.19
2022-08-26T17:55:50.938Z,51.32
2022-08-26T17:58:56.437Z,51.21
2022-08-26T18:02:00.150Z,50.84
2022-08-26T18:05:06.423Z,51.49
2022-08-26T18:08:09.961Z,52.04
2022-08-26T18:11:17.661Z,52.05
2022-08-26T18:14:20.476Z,51.77
2022-08-26T18:17:23.938Z,52.30
2022-08-26T18:20:26.706Z,52.70
2022-08-26T18:23:31.369Z,52.43
2022-08-26T18:26:37.034Z,51.83
2022-08-26T18:29:45.333Z,52.40
2022-08-26T18:32:49.471Z,52.34
2022-08-26T18:35:52.978Z,52.42
2022-08-26T18:38:56.994Z,51.94
2022-08-26T18:42:00.068Z,52.63
2022-08-26T18:45:04.712Z,53.33
2022-08-26T18:48:08.345Z,52.92
2022-08-26T18:51:17.534Z,53.10
2022-08-26T18:57:28.386Z,55.78
2022-08-26T19:00:33.147Z,57.83
2022-08-26T19:03:36.341Z,58.47
2022-08-26T19:06:40.954Z,58.99
2022-08-26T19:09:43.731Z,60.19
2022-08-26T19:12:51.853Z,60.09
2022-08-26T19:15:55.732Z,61.10
2022-08-26T19:18:59.561Z,60.54
2022-08-26T19:22:02.638Z,61.40
2022-08-26T19:25:06.429Z,62.02
2022-08-26T19:28:09.569Z,62.18
2022-08-26T19:31:13.194Z,62.70
2022-08-26T19:34:20.806Z,62.72
2022-08-26T19:37:24.879Z,64.07
2022-08-26T19:40:28.813Z,63.33
2022-08-26T19:43:32.481Z,63.47
2022-08-26T19:49:45.329Z,64.90
2022-08-26T19:52:48.726Z,64.79
2022-08-26T19:55:52.923Z,65.07
2022-08-26T19:58:58.840Z,65.71
2022-08-26T20:02:05.987Z,65.32
2022-08-26T20:05:12.301Z,66.59
2022-08-26T20:08:16.790Z,66.76
2022-08-26T20:11:26.255Z,67.90
2022-08-26T20:14:30.511Z,66.49
2022-08-26T20:17:33.832Z,67.67
2022-08-26T20:20:55.829Z,66.82
2022-08-26T20:24:17.356Z,68.54
2022-08-26T20:27:22.780Z,68.41
2022-08-26T20:30:25.902Z,67.42
2022-08-26T20:33:28.847Z,67.74
2022-08-26T20:36:32.269Z,66.97
2022-08-26T20:39:35.118Z,67.86
2022-08-26T20:42:38.581Z,67.65
2022-08-26T20:45:41.347Z,68.14
2022-08-26T20:48:44.971Z,67.34
2022-08-26T20:51:51.627Z,68.01
2022-08-26T20:54:54.893Z,67.77
2022-08-26T20:57:57.604Z,67.77
2022-08-26T21:01:06.761Z,68.25
2022-08-26T21:04:15.619Z,67.94
2022-08-26T21:07:21.012Z,69.09
2022-08-26T21:10:24.994Z,68.49
2022-08-26T21:13:39.179Z,68.80
2022-08-26T21:16:51.443Z,68.61
2022-08-26T21:19:54.568Z,67.92
2022-08-26T21:22:57.245Z,68.75
2022-08-26T21:26:09.164Z,68.37
2022-08-26T21:29:13.932Z,68.80
2022-08-26T21:32:17.080Z,68.49
2022-08-26T21:35:19.866Z,68.33
2022-08-26T21:38:22.976Z,68.84
2022-08-26T21:41:27.618Z,68.80
2022-08-26T21:44:32.111Z,69.27
2022-08-26T21:47:34.953Z,69.52
2022-08-26T21:50:38.400Z,71.03
2022-08-26T21:53:41.111Z,70.46
2022-08-26T21:56:46.932Z,71.02
2022-08-26T21:59:49.561Z,70.73
2022-08-26T22:02:52.675Z,69.97
2022-08-26T22:05:55.948Z,70.58
2022-08-26T22:08:59.671Z,70.52
2022-08-26T22:12:02.941Z,71.42
2022-08-26T22:15:06.737Z,71.62
2022-08-26T22:18:09.908Z,70.95
2022-08-26T22:21:20.471Z,71.90
2022-08-26T22:24:25.295Z,73.22
2022-08-26T22:27:28.313Z,74.21
2022-08-26T22:30:31.757Z,75.36
2022-08-26T22:33:34.788Z,74.52
2022-08-26T22:36:43.606Z,73.48
2022-08-26T22:39:46.792Z,72.68
2022-08-26T22:42:57.917Z,72.20
2022-08-26T22:46:02.938Z,70.78
2022-08-26T22:49:06.672Z,71.04
2022-08-26T22:52:09.347Z,70.61
2022-08-26T22:55:12.396Z,71.37
2022-08-26T22:58:17.514Z,71.44
2022-08-26T23:01:20.726Z,71.37
2022-08-26T23:04:23.563Z,71.59
2022-08-26T23:07:26.493Z,72.57
2022-08-26T23:10:29.885Z,72.62
2022-08-26T23:13:32.899Z,72.60
2022-08-26T23:16:39.594Z,73.13
2022-08-26T23:19:42.866Z,72.80
2022-08-26T23:22:48.381Z,73.06
2022-08-26T23:25:51.606Z,74.32
2022-08-26T23:28:55.031Z,73.94
2022-08-26T23:31:58.112Z,73.79
2022-08-26T23:35:01.133Z,74.03
2022-08-26T23:38:09.919Z,73.38
2022-08-26T23:41:14.375Z,73.87
2022-08-26T23:44:20.983Z,74.05
2022-08-26T23:47:23.733Z,73.84
2022-08-26T23:50:48.748Z,74.34
2022-08-26T23:53:51.649Z,74.03
2022-08-26T23:56:56.669Z,75.03
2022-08-26T23:59:59.835Z,75.37
